Latest Coastal Weather Observations for Portland Airport

IDV60701

Issued at 5:55 am EDT Thursday 27 November 2014 (issued every 10 minutes, with the page automatically refreshed every 10 minutes)

About coastal observations | Map of coastal stations | Coastal observations for VIC | Marine services | Other Formats
Station Details ID: 090171 Name: CASHMORE AIRPORT Lat: -38.31 Lon: 141.47 Height: 80.9 m
Data from the previous 72 hours. | See also: Recent months at Portland Airport
Date/Time
EDT
Temp

°C
Wind Pressure Rain
since 9am
mm
Weather Cloud Vis
km
Sea
Height
m
Swell
Dir
 
Speed
knots
Gust
knots
hPa Trend Height
m
Period
s
Dir
27/05:30am 12.1 SE 5 9 1025.5 - 0.4 - Cloudy 10 - - - -
27/05:00am 12.3 SE 7 10 1025.3 - 0.4 - Cloudy 10 - - - -
27/04:30am 11.8 ESE 3 5 1025.0 - 0.4 - Cloudy 10 - - - -
27/04:00am 12.1 SE 6 9 1024.9 - 0.4 - Cloudy 10 - - - -
27/03:30am 11.8 ESE 6 9 1024.8 - 0.4 - Cloudy 10 - - - -
27/03:00am 11.7 SE 4 5 1024.8 - 0.4 - Cloudy 10 - - - -
27/02:30am 12.0 SE 7 11 1024.9 - 0.4 - Cloudy 10 - - - -
27/02:00am 11.6 ESE 5 7 1025.1 - 0.4 - Cloudy 10 - - - -
27/01:30am 11.3 ESE 4 5 1025.3 - 0.4 - Cloudy 10 - - - -
27/01:00am 11.6 SE 5 7 1025.5 - 0.4 - Cloudy 10 - - - -
27/12:30am 11.6 SE 5 8 1025.6 - 0.4 - Partly cloudy 10 - - - -
27/12:00am 11.7 SE 7 12 1025.8 - 0.4 - Mostly cloudy 10 - - - -
 
Date/Time
EDT
Temp

°C
Wind Pressure Rain
since 9am
mm
Weather Cloud Vis
km
Sea
Height
m
Swell
Dir
 
Speed
knots
Gust
knots
hPa Trend Height
m
Period
s
Dir
26/11:30pm 12.2 SE 7 9 1025.6 - 0.4 - Cloudy 10 - - - -
26/11:00pm 12.3 SE 6 9 1025.6 - 0.4 - Cloudy 10 - - - -
26/10:30pm 12.1 SE 6 9 1025.6 - 0.4 - Cloudy 10 - - - -
26/10:00pm 11.5 SSE 5 7 1025.4 - 0.4 - Partly cloudy 10 - - - -
26/09:30pm 12.0 SSE 5 6 1025.0 - 0.4 - Partly cloudy 10 - - - -
26/09:00pm 12.4 SSE 4 6 1024.9 - 0.4 - Mostly cloudy 10 - - - -
26/08:30pm 12.8 SSE 9 13 1024.8 - 0.4 - Cloudy 10 - - - -
26/08:00pm 13.3 S 8 12 1024.7 - 0.4 - Cloudy 10 - - - -
26/07:30pm 13.8 SSE 8 12 1024.5 - 0.4 - Partly cloudy 10 - - - -
26/07:00pm 13.8 SSE 7 10 1024.3 - 0.4 - Partly cloudy 10 - - - -
26/06:30pm 14.5 S 8 12 1024.0 - 0.4 - Partly cloudy 10 - - - -
26/06:00pm 14.6 S 9 14 1023.8 - 0.4 - Cloudy 10 - - - -
26/05:30pm 14.9 S 8 13 1023.8 - 0.4 - Partly cloudy 10 - - - -
26/05:00pm 15.5 S 8 13 1023.7 - 0.4 - Partly cloudy 10 - - - -
26/04:30pm 15.6 S 10 16 1023.6 - 0.4 - Partly cloudy 10 - - - -
26/04:00pm 15.4 S 10 15 1023.7 - 0.2 - Partly cloudy 10 - - - -
26/03:30pm 16.0 S 9 13 1023.5 - 0.2 - Partly cloudy 10 - - - -
26/03:00pm 14.5 S 9 15 1023.5 - 0.2 - Cloudy 10 - - - -
26/02:30pm 14.5 S 11 15 1023.6 - 0.2 - Partly cloudy 10 - - - -
26/02:29pm 14.7 S 11 15 1023.6 - 0.2 - Partly cloudy 10 - - - -
26/02:02pm 14.5 S 8 12 1023.5 - 0.2 - Partly cloudy 6 - - - -
26/02:01pm 14.4 S 8 11 1023.5 - 0.2 - Partly cloudy 7 - - - -
26/02:00pm 14.6 S 7 10 1023.5 - 0.2 - Partly cloudy 7 - - - -
26/01:45pm 14.7 SSW 10 15 1023.4 - 0.2 - Partly cloudy 6 - - - -
26/01:30pm 15.6 WSW 12 17 1023.3 - 0.2 - Partly cloudy 10 - - - -
26/01:12pm 15.6 WSW 10 15 1023.3 - 0.2 - Partly cloudy 10 - - - -
26/01:00pm 15.2 WSW 11 16 1023.4 - 0.2 - Partly cloudy 5 - - - -
26/12:51pm 15.2 WSW 14 19 1023.4 - 0.0 - Partly cloudy 6 - - - -
26/12:48pm 15.9 WSW 14 19 1023.3 - 0.0 - Partly cloudy 10 - - - -
26/12:41pm 16.9 W 13 18 1023.3 - 0.0 - Partly cloudy 10 - - - -
26/12:30pm 15.9 W 14 18 1023.3 - 0.0 - Partly cloudy 10 - - - -
26/12:26pm 15.5 W 13 18 1023.3 - 0.0 - Partly cloudy 10 - - - -
26/12:00pm 14.6 WSW 13 18 1023.3 - 0.0 - Cloudy 3 - - - -
26/11:55am 14.9 WSW 14 18 1023.2 - 0.0 - Partly cloudy 5 - - - -
26/11:32am 15.8 W 12 17 1023.1 - 0.0 - Partly cloudy 10 - - - -
26/11:30am 15.8 W 12 17 1023.1 - 0.0 - Partly cloudy 10 - - - -
26/11:00am 15.9 W 13 17 1023.0 - 0.0 - Partly cloudy 10 - - - -
26/10:30am 15.8 W 15 20 1022.8 - 0.0 - Partly cloudy 10 - - - -
26/10:00am 15.0 W 14 19 1022.7 - 0.0 - Cloudy 10 - - - -
26/09:30am 15.1 W 13 16 1022.4 - 0.0 - Partly cloudy 10 - - - -
26/09:00am 14.7 W 12 18 1022.1 - 0.0 - Cloudy 10 - - - -
26/08:30am 14.7 W 11 13 1022.0 - 0.0 - Partly cloudy 10 - - - -
26/08:00am 13.6 W 11 14 1021.7 - 0.0 - Partly cloudy 10 - - - -
26/07:30am 13.5 W 10 13 1021.4 - 0.0 - Partly cloudy 10 - - - -
26/07:00am 12.9 W 9 12 1021.3 - 0.0 - Partly cloudy 10 - - - -
26/06:30am 12.6 WSW 9 13 1021.2 - 0.0 - Partly cloudy 10 - - - -
26/06:00am 12.9 WSW 10 14 1020.8 - 0.0 - Cloudy 10 - - - -
26/05:30am 12.8 W 9 13 1020.7 - 0.0 - Cloudy 10 - - - -
26/05:00am 12.9 W 9 13 1020.4 - 0.0 - Partly cloudy 10 - - - -
26/04:30am 12.7 W 8 11 1020.4 - 0.0 - Cloudy 10 - - - -
26/04:00am 12.7 W 12 17 1020.4 - 0.0 - Partly cloudy 10 - - - -
26/03:30am 12.8 WSW 8 13 1020.4 - 0.0 - Cloudy 10 - - - -
26/03:00am 12.8 WSW 9 13 1020.5 - 0.0 - Mostly cloudy 10 - - - -
26/02:30am 12.7 WSW 10 15 1020.8 - 0.0 - Cloudy 10 - - - -
26/02:00am 12.5 WSW 7 12 1021.0 - 0.0 - Partly cloudy 10 - - - -
26/01:30am 12.4 WSW 10 15 1021.3 - 0.0 - Partly cloudy 10 - - - -
26/01:00am 12.8 W 6 9 1021.5 - 0.0 - Partly cloudy 10 - - - -
26/12:30am 12.9 WSW 9 12 1021.7 - 0.0 - Partly cloudy 10 - - - -
26/12:00am 13.0 W 8 10 1021.8 - 0.0 - Cloudy 10 - - - -
 
Date/Time
EDT
Temp

°C
Wind Pressure Rain
since 9am
mm
Weather Cloud Vis
km
Sea
Height
m
Swell
Dir
 
Speed
knots
Gust
knots
hPa Trend Height
m
Period
s
Dir
25/11:30pm 12.9 WSW 9 13 1021.9 - 0.0 - Cloudy 10 - - - -
25/11:00pm 13.1 WSW 11 16 1022.1 - 0.0 - Cloudy 10 - - - -
25/10:30pm 12.1 WSW 6 8 1022.1 - 0.0 - Partly cloudy 10 - - - -
25/10:00pm 12.2 WSW 8 11 1022.2 - 0.0 - Partly cloudy 10 - - - -
25/09:30pm 12.0 WSW 7 12 1022.0 - 0.0 - Partly cloudy 10 - - - -
25/09:00pm 12.2 WSW 9 14 1022.0 - 0.0 - Mostly cloudy 10 - - - -
25/08:30pm 12.9 WSW 10 14 1021.9 - 0.0 - Partly cloudy 10 - - - -
25/08:00pm 13.0 WSW 11 15 1021.9 - 0.0 - Partly cloudy 10 - - - -
25/07:30pm 14.0 WSW 13 19 1021.5 - 0.0 - Partly cloudy 10 - - - -
25/07:00pm 14.1 W 14 18 1021.2 - 0.0 - Partly cloudy 10 - - - -
25/06:30pm 13.9 WSW 12 19 1021.0 - 0.0 - Partly cloudy 10 - - - -
25/06:00pm 14.1 WSW 13 18 1020.7 - 0.0 - Cloudy 10 - - - -
25/05:30pm 14.8 W 15 21 1020.6 - 0.0 - Partly cloudy 10 - - - -
25/05:00pm 16.5 W 14 19 1020.6 - 0.0 - Partly cloudy 10 - - - -
25/04:30pm 14.9 W 13 18 1020.7 - 0.0 - Partly cloudy 10 - - - -
25/04:00pm 14.7 W 13 17 1020.8 - 0.0 - Partly cloudy 10 - - - -
25/03:41pm 15.5 SW 20 24 1020.8 - 0.0 - Partly cloudy 10 - - - -
25/03:30pm 15.8 W 17 23 1020.8 - 0.0 - Partly cloudy 10 - - - -
25/03:00pm 15.6 W 17 23 1020.7 - 0.0 - - 10 - - - -
25/02:30pm 15.6 W 16 24 1020.8 - 0.0 - Partly cloudy 10 - - - -
25/02:00pm 16.1 W 18 24 1020.8 - 0.0 - Partly cloudy 10 - - - -
25/01:30pm 15.4 W 16 23 1020.8 - 0.0 - Partly cloudy 10 - - - -
25/01:00pm 16.0 W 15 22 1020.8 - 0.0 - Partly cloudy 10 - - - -
25/12:30pm 15.4 WSW 17 23 1020.8 - 0.0 - Partly cloudy 10 - - - -
25/12:00pm 14.4 W 16 20 1020.7 - 0.0 - Cloudy 10 - - - -
25/11:30am 15.3 WSW 14 20 1020.6 - 0.0 - Partly cloudy 10 - - - -
25/11:00am 14.9 W 17 24 1020.3 - 0.0 - Cloudy 10 - - - -
25/10:30am 14.5 W 15 21 1020.2 - 0.0 - Cloudy 10 - - - -
25/10:00am 14.3 W 18 24 1019.9 - 0.0 - Partly cloudy 10 - - - -
25/09:30am 14.6 WSW 17 23 1019.4 - 0.0 - Partly cloudy 10 - - - -
25/09:00am 14.1 WSW 15 22 1019.1 - 4.0 - Cloudy 10 - - - -
25/08:30am 13.7 WSW 15 19 1018.8 - 4.0 - Partly cloudy 10 - - - -
25/08:00am 13.5 WSW 13 20 1018.5 - 4.0 - Partly cloudy 10 - - - -
25/07:30am 13.0 WSW 12 17 1018.0 - 4.0 - Cloudy 10 - - - -
25/07:00am 12.6 WSW 14 20 1017.9 - 4.0 - Cloudy 10 - - - -
25/06:30am 12.5 WSW 16 22 1017.3 - 4.0 - Partly cloudy 10 - - - -
25/06:00am 12.5 WSW 12 17 1016.8 - 4.0 - Mostly cloudy 10 - - - -
25/05:30am 12.4 WSW 13 18 1016.3 - 4.0 - Partly cloudy 10 - - - -
25/05:00am 12.4 WSW 14 20 1016.0 - 4.0 - Partly cloudy 10 - - - -
25/04:30am 12.0 WSW 15 26 1015.9 - 4.0 - Partly cloudy 10 - - - -
25/04:26am 12.3 WSW 15 26 1015.8 - 4.0 - Partly cloudy 10 - - - -
25/04:00am 12.3 WSW 15 21 1015.8 - 4.0 - Partly cloudy 10 - - - -
25/03:30am 12.1 WSW 13 20 1015.8 - 4.0 - Partly cloudy 10 - - - -
25/03:00am 12.1 WSW 14 22 1015.7 - 4.0 - Mostly clear 10 - - - -
25/02:30am 12.5 WSW 15 22 1015.6 - 4.0 - Partly cloudy 10 - - - -
25/02:00am 12.5 WSW 15 21 1015.6 - 4.0 - Partly cloudy 10 - - - -
25/01:30am 12.4 W 15 20 1015.5 - 4.0 - Partly cloudy 10 - - - -
25/01:00am 12.3 W 15 22 1015.4 - 4.0 - Partly cloudy 10 - - - -
25/12:30am 12.0 W 15 23 1015.2 - 4.0 - Partly cloudy - - - - -
25/12:00am 11.5 WSW 15 21 1015.1 - 4.0 Recent precip. Mostly clear 10 - - - -
 
Date/Time
EDT
Temp

°C
Wind Pressure Rain
since 9am
mm
Weather Cloud Vis
km
Sea
Height
m
Swell
Dir
 
Speed
knots
Gust
knots
hPa Trend Height
m
Period
s
Dir
24/11:34pm 11.0 WSW 14 20 1015.1 - 4.0 - Partly cloudy 10 - - - -
24/11:30pm 11.2 WSW 14 20 1015.1 - 4.0 - Partly cloudy 10 - - - -
24/11:15pm 11.5 WSW 17 30 1015.1 - 3.8 - Partly cloudy 5 - - - -
24/11:14pm 12.4 WSW 16 27 1015.0 - 3.2 - Partly cloudy 10 - - - -
24/11:00pm 12.5 W 17 24 1014.9 - 2.6 - Partly cloudy 10 - - - -
24/10:44pm 12.4 WSW 15 25 1014.9 - 2.6 - Partly cloudy 10 - - - -
24/10:30pm 12.7 WSW 18 25 1014.7 - 2.6 - Partly cloudy 10 - - - -
24/10:00pm 12.7 W 19 25 1014.3 - 2.6 - Partly cloudy 10 - - - -
24/09:30pm 12.1 W 14 21 1014.1 - 2.6 - Partly cloudy 10 - - - -
24/09:00pm 12.4 WSW 17 27 1013.8 - 2.6 - Cloudy 10 - - - -
24/08:31pm 13.3 W 15 25 1013.5 - 2.6 - Partly cloudy 10 - - - -
24/08:30pm 13.4 W 16 25 1013.4 - 2.6 - Partly cloudy 10 - - - -
24/08:16pm 13.5 WSW 16 26 1013.3 - 2.6 - Partly cloudy 10 - - - -
24/08:00pm 13.8 W 17 22 1012.9 - 2.6 - Partly cloudy 10 - - - -
24/07:30pm 14.3 WSW 18 26 1012.3 - 2.6 - Partly cloudy 10 - - - -
24/07:00pm 14.3 W 18 29 1011.7 - 2.6 - Partly cloudy 10 - - - -
24/06:56pm 14.3 W 18 29 1011.5 - 2.6 - Partly cloudy 10 - - - -
24/06:30pm 15.2 W 20 26 1011.2 - 2.6 - Partly cloudy 10 - - - -
24/06:00pm 15.8 W 19 27 1011.0 - 2.6 - Cloudy 10 - - - -
24/05:39pm 15.6 WSW 19 29 1010.9 - 2.6 - Partly cloudy 10 - - - -
24/05:30pm 14.9 W 20 28 1010.9 - 2.6 - Partly cloudy 10 - - - -
24/05:00pm 15.3 W 20 26 1010.8 - 2.6 - Partly cloudy 10 - - - -
24/04:30pm 16.6 W 19 27 1010.7 - 2.6 - Partly cloudy 10 - - - -
24/04:00pm 15.9 W 17 25 1010.5 - 2.6 - Partly cloudy 10 - - - -
24/03:30pm 15.4 W 16 21 1010.4 - 2.6 - Partly cloudy 10 - - - -
24/03:00pm 15.1 W 14 19 1010.3 - 2.6 Recent precip. Cloudy 10 - - - -
24/02:58pm 15.5 W 14 19 1010.4 - 2.6 - Partly cloudy 10 - - - -
24/02:48pm 14.9 W 14 19 1010.2 - 2.6 - Partly cloudy 10 - - - -
24/02:30pm 14.5 W 13 17 1010.3 - 2.6 - Partly cloudy 10 - - - -
24/02:01pm 13.6 W 11 15 1010.3 - 2.4 - Partly cloudy 10 - - - -
24/02:00pm 13.4 W 11 15 1010.3 - 2.4 - Partly cloudy 10 - - - -
24/01:57pm 13.4 W 11 13 1010.4 - 2.4 - Partly cloudy 10 - - - -
24/01:30pm 12.4 WSW 14 21 1010.4 - 2.2 - Partly cloudy 3 - - - -
24/01:00pm 12.8 WSW 19 25 1010.2 - 1.0 - Partly cloudy 2 - - - -
24/12:52pm 13.6 WSW 17 24 1010.0 - 0.6 - Partly cloudy 3 - - - -
24/12:46pm 14.5 WSW 16 20 1010.0 - 0.4 - Partly cloudy 6 - - - -
24/12:30pm 17.2 W 12 16 1009.7 - 0.0 - Partly cloudy 10 - - - -
24/12:00pm 17.7 W 11 17 1009.6 - 0.0 - Cloudy 10 - - - -
24/11:30am 17.8 W 10 14 1009.5 - 0.0 - Cloudy 10 - - - -
24/11:00am 16.6 W 9 11 1009.3 - 0.0 - Cloudy 10 - - - -
24/10:30am 16.4 W 7 9 1009.2 - 0.0 - Cloudy 10 - - - -
24/10:00am 15.5 W 6 7 1009.6 - 0.0 - Cloudy 10 - - - -
24/09:30am 15.3 SW 5 7 1009.5 - 0.0 - Partly cloudy 10 - - - -
24/09:00am 14.8 SW 5 7 1009.1 - 1.6 - Cloudy 10 - - - -
24/08:30am 14.4 NW 3 6 1008.9 - 1.6 - Partly cloudy 10 - - - -
24/08:00am 13.6 CALM 0 0 1009.7 - 1.6 - Cloudy 10 - - - -
24/07:30am 13.2 NNW 6 7 1010.3 - 1.4 - Partly cloudy 10 - - - -
24/07:00am 13.0 NE 4 6 1009.0 - 1.0 - Cloudy 10 - - - -
24/06:30am 12.6 E 1 3 1008.6 - 1.0 - Partly cloudy 10 - - - -
24/06:00am 12.9 WNW 6 10 1009.5 - 0.4 Rain Cloudy 10 - - - -

Other Formats:

Comma delimited format used in spreadsheet applications
http://www.bom.gov.au/fwo/IDV60701/IDV60701.94828.axf

JavaScript Object Notation format (JSON) in row-major order
http://www.bom.gov.au/fwo/IDV60701/IDV60701.94828.json